Time;durP1;ratioP1;P1;durP2;ratioP2;P2;SDS_P1;SDS_P2;PMS_P1;PMS_P2;Temp;Humidity;BMP_temperature;BMP_pressure;BME280_temperature;BME280_humidity;BME280_pressure;Samples;Min_cycle;Max_cycle;Signal;HPM_P1;HPM_P2
2022/04/11 00:02:13;;;;;;;5.03;4.53;;;8.70;55.00;;;;;;5008289;28;20190;-46
2022/04/11 00:04:39;;;;;;;5.30;4.37;;;8.80;55.10;;;;;;5007750;28;20226;-49
2022/04/11 00:07:04;;;;;;;4.87;4.27;;;8.70;54.90;;;;;;5006710;28;20527;-48
2022/04/11 00:09:30;;;;;;;5.87;5.10;;;8.70;55.10;;;;;;5007795;28;20238;-48
2022/04/11 00:11:56;;;;;;;5.30;3.80;;;8.60;55.10;;;;;;4999728;28;20232;-46
2022/04/11 00:14:23;;;;;;;4.73;4.27;;;8.60;55.40;;;;;;5006806;28;20616;-47
2022/04/11 00:16:48;;;;;;;4.70;4.13;;;8.70;55.00;;;;;;5009125;28;20437;-49
2022/04/11 00:19:14;;;;;;;5.53;4.00;;;8.50;55.30;;;;;;5006696;28;20442;-46
2022/04/11 00:21:39;;;;;;;3.87;3.53;;;8.50;55.40;;;;;;5017005;28;20618;-51
2022/04/11 00:24:05;;;;;;;4.40;4.00;;;8.60;55.40;;;;;;5003570;28;20231;-47
2022/04/11 00:26:31;;;;;;;6.27;3.90;;;8.70;55.30;;;;;;5003779;28;20236;-48
2022/04/11 00:28:57;;;;;;;4.17;3.77;;;8.60;55.10;;;;;;5006643;28;20444;-50
2022/04/11 00:31:22;;;;;;;4.13;3.83;;;8.50;55.20;;;;;;5010407;28;20630;-46
2022/04/11 00:33:48;;;;;;;6.30;4.07;;;8.50;55.50;;;;;;5004038;28;20850;-47
2022/04/11 00:36:14;;;;;;;5.17;3.83;;;8.70;55.30;;;;;;5015486;28;20190;-52
2022/04/11 00:38:39;;;;;;;5.20;3.90;;;8.70;55.10;;;;;;5006521;28;20321;-46
2022/04/11 00:41:05;;;;;;;5.17;3.40;;;8.60;54.90;;;;;;5010044;28;20213;-46
2022/04/11 00:43:40;;;;;;;5.30;3.80;;;8.50;55.10;;;;;;5008095;28;20243;-47
2022/04/11 00:46:07;;;;;;;4.10;3.50;;;8.30;55.70;;;;;;5007243;28;20256;-48
2022/04/11 00:48:34;;;;;;;5.23;3.97;;;7.80;56.80;;;;;;4998594;28;21016;-48
2022/04/11 00:51:03;;;;;;;4.50;3.77;;;7.60;57.60;;;;;;5001014;28;20445;-46
2022/04/11 00:53:31;;;;;;;4.63;3.47;;;7.50;57.60;;;;;;5011400;28;20440;-47
2022/04/11 00:55:57;;;;;;;3.70;3.40;;;7.50;57.90;;;;;;5009286;28;20824;-47
2022/04/11 00:58:23;;;;;;;4.20;3.80;;;7.40;58.20;;;;;;5003849;28;20823;-48
2022/04/11 01:00:49;;;;;;;4.77;4.20;;;7.40;58.00;;;;;;5006273;28;20445;-48
2022/04/11 01:03:14;;;;;;;3.90;3.50;;;7.30;57.80;;;;;;5004265;28;20577;-46
2022/04/11 01:05:40;;;;;;;3.33;3.03;;;7.20;58.30;;;;;;5009335;28;20269;-48
2022/04/11 01:08:08;;;;;;;4.73;3.90;;;7.20;58.60;;;;;;5007495;28;20236;-46
2022/04/11 01:10:34;;;;;;;6.20;4.03;;;7.10;58.60;;;;;;5000232;28;20951;-48
2022/04/11 01:13:00;;;;;;;6.17;4.20;;;7.20;58.70;;;;;;5015693;28;20432;-47
2022/04/11 01:15:26;;;;;;;3.43;3.13;;;7.20;58.40;;;;;;5007679;28;20272;-46
2022/04/11 01:17:52;;;;;;;4.27;3.60;;;6.90;58.90;;;;;;5007198;28;20453;-48
2022/04/11 01:20:19;;;;;;;13.87;4.00;;;6.70;59.70;;;;;;5008432;28;20828;-46
2022/04/11 01:22:45;;;;;;;4.73;4.23;;;7.00;59.80;;;;;;5002819;28;20280;-47
2022/04/11 01:25:11;;;;;;;5.50;4.90;;;7.10;59.10;;;;;;5005365;28;20859;-49
2022/04/11 01:27:38;;;;;;;6.70;3.60;;;7.30;58.80;;;;;;5006794;28;20450;-48
2022/04/11 01:30:05;;;;;;;4.30;3.50;;;6.90;58.70;;;;;;5002257;28;20469;-46
2022/04/11 01:32:30;;;;;;;5.67;4.03;;;6.70;59.90;;;;;;5005180;28;20480;-48
2022/04/11 01:34:56;;;;;;;4.00;3.60;;;6.70;60.00;;;;;;4999925;28;21189;-47
2022/04/11 01:37:22;;;;;;;5.87;4.17;;;6.90;59.90;;;;;;5006074;28;20220;-47
2022/04/11 01:39:48;;;;;;;4.40;4.00;;;7.10;59.10;;;;;;5006074;28;20194;-50
2022/04/11 01:42:13;;;;;;;5.33;3.67;;;7.10;58.70;;;;;;5004685;28;20221;-46
2022/04/11 01:44:39;;;;;;;4.77;3.83;;;7.20;58.80;;;;;;5005006;28;20272;-47
2022/04/11 01:47:04;;;;;;;4.60;4.20;;;7.40;58.50;;;;;;5005117;28;20216;-49
2022/04/11 01:49:30;;;;;;;6.07;4.87;;;7.70;58.20;;;;;;5008477;28;20284;-44
2022/04/11 01:51:56;;;;;;;7.77;5.00;;;7.40;58.10;;;;;;5006239;28;20225;-48
2022/04/11 01:54:21;;;;;;;5.63;4.87;;;7.50;58.20;;;;;;5006533;28;20201;-47
2022/04/11 01:56:47;;;;;;;7.87;5.30;;;7.60;57.60;;;;;;5008061;28;20190;-47
2022/04/11 01:59:14;;;;;;;7.87;5.30;;;7.60;57.40;;;;;;5007727;28;20228;-44
2022/04/11 02:01:40;;;;;;;7.70;5.20;;;7.80;57.40;;;;;;5004054;28;20201;-48
2022/04/11 02:04:06;;;;;;;6.43;4.87;;;7.90;57.00;;;;;;5009841;28;20492;-46
2022/04/11 02:06:31;;;;;;;7.10;4.87;;;7.90;56.70;;;;;;5006781;28;20198;-47
2022/04/11 02:08:57;;;;;;;5.10;4.30;;;7.90;56.50;;;;;;5006593;28;21059;-46
2022/04/11 02:11:23;;;;;;;6.10;5.07;;;7.70;56.90;;;;;;5003219;28;20194;-47
2022/04/11 02:13:48;;;;;;;4.50;3.67;;;7.60;57.20;;;;;;5008038;28;20190;-46
2022/04/11 02:16:14;;;;;;;3.67;3.37;;;7.60;57.50;;;;;;5007552;28;20246;-47
2022/04/11 02:18:39;;;;;;;5.90;3.60;;;7.70;57.30;;;;;;5008884;28;20239;-47
2022/04/11 02:21:05;;;;;;;4.70;4.20;;;7.80;57.00;;;;;;5011061;28;20232;-46
2022/04/11 02:23:30;;;;;;;6.50;4.80;;;7.90;56.70;;;;;;5006572;28;20225;-49
2022/04/11 02:25:56;;;;;;;4.83;4.27;;;7.80;56.60;;;;;;5010684;28;20229;-47
2022/04/11 02:28:22;;;;;;;7.07;4.50;;;7.60;56.80;;;;;;5010280;28;20202;-46
2022/04/11 02:30:47;;;;;;;5.13;3.80;;;7.40;57.10;;;;;;5011847;28;20201;-46
2022/04/11 02:33:13;;;;;;;4.20;3.80;;;6.70;58.40;;;;;;5012363;28;20202;-48
2022/04/11 02:35:40;;;;;;;5.40;4.23;;;6.60;59.50;;;;;;5004904;28;20198;-48
2022/04/11 02:38:06;;;;;;;4.93;3.83;;;6.60;59.70;;;;;;5019565;28;20198;-46
2022/04/11 02:40:32;;;;;;;7.17;4.53;;;6.70;60.10;;;;;;5010830;28;20495;-46
2022/04/11 02:42:58;;;;;;;4.73;4.23;;;6.70;59.40;;;;;;5011067;28;20488;-46
2022/04/11 02:45:24;;;;;;;5.13;4.63;;;6.70;59.50;;;;;;5010396;28;20190;-46
2022/04/11 02:47:50;;;;;;;5.93;3.90;;;6.80;59.50;;;;;;5007711;28;20202;-46
2022/04/11 02:50:16;;;;;;;4.83;4.37;;;6.80;59.10;;;;;;5011003;28;20842;-46
2022/04/11 02:52:42;;;;;;;5.57;4.60;;;6.70;59.30;;;;;;5007828;28;20212;-46
2022/04/11 02:55:08;;;;;;;4.53;3.97;;;6.60;59.60;;;;;;5006124;28;20205;-47
2022/04/11 02:57:36;;;;;;;4.37;4.00;;;6.40;59.80;;;;;;5009563;28;20525;-48
2022/04/11 03:00:04;;;;;;;4.40;4.00;;;6.10;60.90;;;;;;5012370;28;20444;-47
2022/04/11 03:02:30;;;;;;;5.87;4.30;;;6.10;61.50;;;;;;5006596;28;20476;-47
2022/04/11 03:04:56;;;;;;;5.83;4.70;;;6.00;61.40;;;;;;5012086;28;20508;-46
2022/04/11 03:07:22;;;;;;;5.40;3.87;;;5.70;62.10;;;;;;5013143;28;20190;-46
2022/04/11 03:09:47;;;;;;;8.70;4.70;;;5.60;63.00;;;;;;5010087;28;20229;-46
2022/04/11 03:12:13;;;;;;;6.20;4.20;;;5.50;63.40;;;;;;5012294;28;20436;-48
2022/04/11 03:14:38;;;;;;;6.50;5.20;;;5.70;63.60;;;;;;5008742;28;20190;-50
2022/04/11 03:17:04;;;;;;;5.53;4.47;;;5.90;62.70;;;;;;5010668;28;20271;-46
2022/04/11 03:19:30;;;;;;;5.50;4.30;;;6.00;62.20;;;;;;5006837;28;20190;-46
2022/04/11 03:21:55;;;;;;;6.13;4.03;;;6.20;61.70;;;;;;5008396;28;20199;-46
2022/04/11 03:24:21;;;;;;;10.83;4.80;;;6.20;61.20;;;;;;5011030;28;20590;-47
2022/04/11 03:26:46;;;;;;;7.27;4.70;;;6.40;61.10;;;;;;5008006;28;20566;-48
2022/04/11 03:29:12;;;;;;;4.40;4.00;;;6.40;60.20;;;;;;5007854;28;20288;-45
2022/04/11 03:31:38;;;;;;;4.40;4.00;;;6.50;60.00;;;;;;5012789;28;20213;-45
2022/04/11 03:34:03;;;;;;;7.10;4.13;;;6.50;60.10;;;;;;5010076;28;20198;-45
2022/04/11 03:36:29;;;;;;;4.33;3.93;;;6.60;59.80;;;;;;5006038;28;20201;-45
2022/04/11 03:38:54;;;;;;;6.63;4.10;;;6.50;59.50;;;;;;5006056;28;20242;-48
2022/04/11 03:41:20;;;;;;;4.70;4.30;;;6.50;59.90;;;;;;5006142;28;20638;-47
2022/04/11 03:43:46;;;;;;;6.20;4.40;;;6.60;60.00;;;;;;5004914;28;20321;-45
2022/04/11 03:46:11;;;;;;;5.07;4.57;;;6.50;59.60;;;;;;5004806;28;20650;-45
2022/04/11 03:48:37;;;;;;;5.40;4.63;;;6.80;59.50;;;;;;5003574;28;20197;-45
2022/04/11 03:51:02;;;;;;;7.30;4.30;;;7.00;59.00;;;;;;5006887;28;20194;-45
2022/04/11 03:53:28;;;;;;;3.93;3.60;;;7.10;58.80;;;;;;5009799;28;20221;-46
2022/04/11 03:55:53;;;;;;;6.00;4.70;;;6.90;58.40;;;;;;5002536;28;20202;-46
2022/04/11 03:58:19;;;;;;;6.83;3.97;;;6.90;58.90;;;;;;5003253;28;20209;-46
2022/04/11 04:00:45;;;;;;;4.70;3.93;;;7.00;58.70;;;;;;5008846;28;20229;-45
2022/04/11 04:03:11;;;;;;;4.90;4.30;;;7.00;58.30;;;;;;5010901;28;20235;-50
2022/04/11 04:05:42;;;;;;;4.87;4.20;;;7.10;58.30;;;;;;5007056;28;20194;-46
2022/04/11 04:08:09;;;;;;;5.60;4.23;;;7.10;58.00;;;;;;5010311;28;20444;-45
2022/04/11 04:10:34;;;;;;;5.20;4.13;;;7.10;58.10;;;;;;5010444;28;20532;-46
2022/04/11 04:13:00;;;;;;;4.43;4.00;;;7.20;58.00;;;;;;5011741;28;20587;-46
2022/04/11 04:15:26;;;;;;;8.00;4.40;;;7.30;57.60;;;;;;5002317;28;20206;-46
2022/04/11 04:17:52;;;;;;;4.50;3.80;;;7.40;57.50;;;;;;5003614;28;20220;-46
2022/04/11 04:20:18;;;;;;;4.50;3.57;;;7.50;57.30;;;;;;5007951;28;20249;-45
2022/04/11 04:22:44;;;;;;;4.80;4.30;;;7.40;57.00;;;;;;5010067;28;20512;-46
2022/04/11 04:25:09;;;;;;;4.80;4.10;;;7.50;57.00;;;;;;5013156;28;20198;-45
2022/04/11 04:27:35;;;;;;;10.67;4.70;;;7.60;56.70;;;;;;5006339;28;20273;-48
2022/04/11 04:30:00;;;;;;;7.50;5.27;;;7.70;56.40;;;;;;5007691;28;20198;-47
2022/04/11 04:32:27;;;;;;;10.03;4.30;;;7.80;56.10;;;;;;5011759;28;20213;-45
2022/04/11 04:34:53;;;;;;;5.23;3.90;;;7.70;56.10;;;;;;5008891;28;20209;-45
2022/04/11 04:37:19;;;;;;;4.93;4.50;;;7.40;56.20;;;;;;5005727;28;20433;-46
2022/04/11 04:39:44;;;;;;;5.60;4.23;;;7.10;57.40;;;;;;5006923;28;20799;-45
2022/04/11 04:42:10;;;;;;;5.20;4.47;;;7.20;57.70;;;;;;5010738;28;20280;-45
2022/04/11 04:44:40;;;;;;;6.87;4.60;;;7.20;57.60;;;;;;5006845;28;20241;-46
2022/04/11 04:47:07;;;;;;;5.07;4.57;;;7.10;57.50;;;;;;5010963;28;20201;-48
2022/04/11 04:49:32;;;;;;;6.53;4.10;;;7.10;57.70;;;;;;5009823;28;20587;-45
2022/04/11 04:51:58;;;;;;;5.40;4.57;;;7.10;57.70;;;;;;5018428;28;20904;-45
2022/04/11 04:54:24;;;;;;;6.60;5.00;;;7.40;58.70;;;;;;5003974;28;20445;-48
2022/04/11 04:56:50;;;;;;;5.27;4.30;;;7.80;59.70;;;;;;5005269;28;20194;-50
2022/04/11 04:59:16;;;;;;;5.93;4.60;;;8.00;58.60;;;;;;5009029;28;20276;-45
2022/04/11 05:01:41;;;;;;;5.27;4.33;;;8.30;58.80;;;;;;5003603;28;20263;-45
2022/04/11 05:04:07;;;;;;;5.83;4.50;;;8.30;56.90;;;;;;5014743;28;21133;-48
2022/04/11 05:06:33;;;;;;;6.23;4.83;;;8.30;56.20;;;;;;5010804;28;20327;-49
2022/04/11 05:08:59;;;;;;;5.07;4.67;;;8.30;57.10;;;;;;5001543;28;20197;-46
2022/04/11 05:11:25;;;;;;;8.83;5.07;;;8.20;56.00;;;;;;5006023;28;20444;-45
2022/04/11 05:13:50;;;;;;;6.03;4.90;;;8.30;55.70;;;;;;5003134;28;20208;-49
2022/04/11 05:16:18;;;;;;;5.60;4.70;;;8.20;55.10;;;;;;5005437;28;20190;-49
2022/04/11 05:18:44;;;;;;;6.83;4.43;;;8.10;55.20;;;;;;5005731;28;20208;-49
2022/04/11 05:21:10;;;;;;;6.43;5.40;;;7.90;55.40;;;;;;5001544;28;20998;-49
2022/04/11 05:23:36;;;;;;;6.00;4.87;;;7.70;56.00;;;;;;5003235;28;20485;-48
2022/04/11 05:26:05;;;;;;;6.90;5.90;;;7.70;56.30;;;;;;5008065;28;21205;-45
2022/04/11 05:28:31;;;;;;;6.60;5.90;;;7.70;56.00;;;;;;5008953;28;20198;-45
2022/04/11 05:30:57;;;;;;;8.57;6.00;;;7.70;56.30;;;;;;5008370;28;20445;-50
2022/04/11 05:33:22;;;;;;;11.63;5.57;;;7.80;56.30;;;;;;5006237;28;20448;-49
2022/04/11 05:35:48;;;;;;;11.80;6.30;;;7.70;56.20;;;;;;5005767;28;20613;-45
2022/04/11 05:38:14;;;;;;;7.73;6.77;;;7.50;56.70;;;;;;5001124;28;20218;-46
2022/04/11 05:40:40;;;;;;;6.10;5.47;;;7.50;56.90;;;;;;4999578;28;20189;-50
2022/04/11 05:43:07;;;;;;;6.83;5.60;;;7.60;56.80;;;;;;5012342;28;20468;-48
2022/04/11 05:45:33;;;;;;;10.93;6.40;;;7.50;56.90;;;;;;5003004;28;20578;-46
2022/04/11 05:47:58;;;;;;;7.20;6.50;;;7.40;57.10;;;;;;5006474;28;20574;-46
2022/04/11 05:50:24;;;;;;;5.57;4.77;;;7.40;57.20;;;;;;5007655;28;20205;-50
2022/04/11 05:52:50;;;;;;;6.90;6.20;;;7.40;57.60;;;;;;5010071;28;20552;-45
2022/04/11 05:55:15;;;;;;;7.90;6.23;;;7.40;57.70;;;;;;5009611;28;20433;-45
2022/04/11 05:57:41;;;;;;;8.17;5.90;;;7.20;58.00;;;;;;5006608;28;20198;-47
2022/04/11 06:00:07;;;;;;;9.37;5.20;;;7.30;58.40;;;;;;5006611;28;20190;-49
2022/04/11 06:02:33;;;;;;;7.10;5.73;;;7.20;58.70;;;;;;5005862;28;20194;-48
2022/04/11 06:04:59;;;;;;;10.77;5.07;;;7.40;58.60;;;;;;5011855;28;20793;-46
2022/04/11 06:07:27;;;;;;;6.20;5.67;;;7.30;58.60;;;;;;5009973;28;20202;-50
2022/04/11 06:09:53;;;;;;;7.07;5.87;;;7.50;58.60;;;;;;5010460;28;20522;-49
2022/04/11 06:12:20;;;;;;;6.80;5.60;;;7.60;58.30;;;;;;5008389;28;20447;-49
2022/04/11 06:14:46;;;;;;;7.90;5.73;;;7.60;58.00;;;;;;5008869;28;20445;-46
2022/04/11 06:17:12;;;;;;;8.50;5.77;;;7.60;58.30;;;;;;5005991;28;20938;-49
2022/04/11 06:19:38;;;;;;;7.10;5.43;;;7.60;58.60;;;;;;5012039;28;20189;-48
2022/04/11 06:22:03;;;;;;;6.63;4.90;;;7.70;58.10;;;;;;5010170;28;20190;-48
2022/04/11 06:24:29;;;;;;;6.30;5.70;;;7.80;57.80;;;;;;5021126;28;20224;-46
2022/04/11 06:26:54;;;;;;;8.87;5.37;;;8.00;57.70;;;;;;5030175;28;20223;-49
2022/04/11 06:29:20;;;;;;;7.43;5.43;;;8.20;57.60;;;;;;5029874;28;20196;-48
2022/04/11 06:31:45;;;;;;;5.73;5.00;;;8.20;57.40;;;;;;5028203;28;20244;-51
2022/04/11 06:34:11;;;;;;;13.77;4.87;;;8.30;57.80;;;;;;5030281;28;20225;-47
2022/04/11 06:36:37;;;;;;;8.90;5.50;;;8.70;57.50;;;;;;5024185;28;20190;-49
2022/04/11 06:39:02;;;;;;;5.97;5.20;;;8.70;56.20;;;;;;5010396;28;20244;-48
2022/04/11 06:41:28;;;;;;;9.80;5.13;;;8.80;56.40;;;;;;5010198;28;20194;-51
2022/04/11 06:43:53;;;;;;;6.37;5.10;;;9.00;56.20;;;;;;5010119;28;20273;-50
2022/04/11 06:46:19;;;;;;;5.10;4.60;;;9.30;55.50;;;;;;5007368;28;20241;-49
2022/04/11 06:48:45;;;;;;;6.23;5.50;;;9.20;54.70;;;;;;5015053;28;20220;-51
2022/04/11 06:51:10;;;;;;;7.93;4.80;;;9.40;54.90;;;;;;5029527;28;20197;-50
2022/04/11 06:53:37;;;;;;;6.20;4.90;;;9.60;54.20;;;;;;5028894;28;20258;-52
2022/04/11 06:56:03;;;;;;;5.90;5.30;;;9.80;53.90;;;;;;5029416;28;20203;-48
2022/04/11 06:58:28;;;;;;;7.43;4.70;;;9.90;54.00;;;;;;5027994;28;20486;-51
2022/04/11 07:00:54;;;;;;;7.33;4.83;;;10.00;52.80;;;;;;5029388;28;20205;-47
2022/04/11 07:03:19;;;;;;;5.27;4.77;;;10.30;52.30;;;;;;5029864;28;20256;-49
2022/04/11 07:05:45;;;;;;;5.50;4.60;;;10.30;51.30;;;;;;5032443;28;20243;-51
2022/04/11 07:08:10;;;;;;;5.97;5.40;;;10.20;51.60;;;;;;5032928;28;20189;-51
2022/04/11 07:10:37;;;;;;;7.90;6.00;;;10.30;52.00;;;;;;5032967;28;20284;-51
2022/04/11 07:13:03;;;;;;;5.30;4.63;;;10.80;51.60;;;;;;5033820;28;20340;-50
2022/04/11 07:15:29;;;;;;;5.87;5.20;;;11.00;50.40;;;;;;5032849;28;20422;-50
2022/04/11 07:17:54;;;;;;;8.43;5.50;;;11.10;50.20;;;;;;5032929;28;20424;-50
2022/04/11 07:20:20;;;;;;;7.97;5.77;;;11.50;49.40;;;;;;5032813;28;20193;-51
2022/04/11 07:22:46;;;;;;;5.30;4.80;;;11.60;48.80;;;;;;5032196;28;20221;-50
2022/04/11 07:25:11;;;;;;;6.30;5.07;;;11.70;48.40;;;;;;5031196;28;20181;-47
2022/04/11 07:27:37;;;;;;;5.57;4.40;;;11.60;48.10;;;;;;5031841;28;20193;-48
2022/04/11 07:30:06;;;;;;;4.03;3.63;;;11.80;48.20;;;;;;5032729;28;20264;-48
2022/04/11 07:32:31;;;;;;;4.53;3.57;;;11.90;47.70;;;;;;5033374;28;20540;-48
2022/04/11 07:34:58;;;;;;;5.20;4.20;;;12.00;47.00;;;;;;5032557;28;20428;-47
2022/04/11 07:37:25;;;;;;;6.27;4.53;;;12.10;47.10;;;;;;5033013;28;20200;-46
2022/04/11 07:39:52;;;;;;;4.70;4.20;;;12.30;46.70;;;;;;5031991;28;20474;-47
2022/04/11 07:42:18;;;;;;;5.63;4.43;;;12.50;46.10;;;;;;5033066;28;20428;-48
2022/04/11 07:44:44;;;;;;;4.60;4.20;;;12.60;45.60;;;;;;5023735;28;20471;-47
2022/04/11 07:47:10;;;;;;;5.90;4.40;;;12.60;44.80;;;;;;5004237;28;20194;-47
2022/04/11 07:49:35;;;;;;;4.50;4.10;;;12.70;45.00;;;;;;5031303;28;20428;-47
2022/04/11 07:52:01;;;;;;;4.50;3.57;;;13.00;45.00;;;;;;5031024;28;20545;-49
2022/04/11 07:54:26;;;;;;;4.87;4.33;;;13.00;43.60;;;;;;5032244;28;20232;-48
2022/04/11 07:56:52;;;;;;;4.90;3.60;;;13.00;43.50;;;;;;5032707;28;20229;-46
2022/04/11 07:59:18;;;;;;;4.10;3.40;;;12.90;43.70;;;;;;5032269;28;20197;-46
2022/04/11 08:01:43;;;;;;;4.03;3.73;;;13.10;43.80;;;;;;5032230;28;20636;-46
2022/04/11 08:04:09;;;;;;;9.20;4.23;;;13.30;43.70;;;;;;5032180;28;20264;-47
2022/04/11 08:06:34;;;;;;;6.03;4.20;;;13.50;43.20;;;;;;5032052;28;20247;-47
2022/04/11 08:09:00;;;;;;;3.90;3.50;;;13.40;42.40;;;;;;5032229;28;20185;-46
2022/04/11 08:11:25;;;;;;;4.50;3.60;;;13.50;42.60;;;;;;5031811;28;20780;-46
2022/04/11 08:13:51;;;;;;;4.30;3.90;;;13.60;42.20;;;;;;5031945;28;20649;-47
2022/04/11 08:16:17;;;;;;;3.73;3.43;;;13.90;41.90;;;;;;5030673;28;20204;-50
2022/04/11 08:18:43;;;;;;;6.00;3.50;;;14.10;41.50;;;;;;5031044;28;20416;-48
2022/04/11 08:21:09;;;;;;;6.13;3.87;;;14.10;41.20;;;;;;5030910;28;20300;-47
2022/04/11 08:23:34;;;;;;;4.40;3.10;;;14.40;42.00;;;;;;5032091;28;20654;-47
2022/04/11 08:26:00;;;;;;;3.00;2.70;;;14.90;40.80;;;;;;5031616;28;20280;-47
2022/04/11 08:28:25;;;;;;;4.27;3.40;;;15.10;39.60;;;;;;5031734;28;20243;-46
2022/04/11 08:30:51;;;;;;;3.33;3.03;;;15.40;39.00;;;;;;5031559;28;20545;-50
2022/04/11 08:33:17;;;;;;;2.87;2.67;;;15.50;38.10;;;;;;5031778;28;20196;-51
2022/04/11 08:35:42;;;;;;;3.40;3.07;;;15.40;38.10;;;;;;5031450;28;20197;-48
2022/04/11 08:38:08;;;;;;;4.33;3.37;;;15.60;37.70;;;;;;5031485;28;20707;-50
2022/04/11 08:40:34;;;;;;;5.47;2.90;;;15.90;37.30;;;;;;5031460;28;20196;-50
2022/04/11 08:43:01;;;;;;;3.13;2.87;;;16.10;37.90;;;;;;5031331;28;20219;-51
2022/04/11 08:45:28;;;;;;;3.03;2.83;;;16.30;36.60;;;;;;5016752;28;20427;-51
2022/04/11 08:47:55;;;;;;;4.20;3.27;;;16.40;35.90;;;;;;5006307;28;20432;-48
2022/04/11 08:50:21;;;;;;;2.83;2.50;;;16.40;36.00;;;;;;5030999;28;20424;-51
2022/04/11 08:52:51;;;;;;;4.30;2.57;;;16.60;35.80;;;;;;5031469;28;20839;-47
2022/04/11 08:55:17;;;;;;;4.30;2.83;;;16.70;35.20;;;;;;5030622;28;20435;-48
2022/04/11 08:57:43;;;;;;;3.73;2.93;;;16.50;35.60;;;;;;5031105;28;20424;-47
2022/04/11 09:00:17;;;;;;;3.43;2.57;;;16.60;35.30;;;;;;5031139;28;20419;-48
2022/04/11 09:02:44;;;;;;;4.80;3.47;;;16.90;35.10;;;;;;5031306;28;20535;-46
2022/04/11 09:05:11;;;;;;;3.97;3.20;;;17.10;35.10;;;;;;5030633;28;20439;-48
2022/04/11 09:07:47;;;;;;;3.03;2.73;;;17.10;34.50;;;;;;5031036;28;20419;-48
2022/04/11 09:10:21;;;;;;;2.40;2.20;;;17.20;34.80;;;;;;5030641;28;20432;-47
2022/04/11 09:12:54;;;;;;;2.93;2.63;;;17.40;35.10;;;;;;5029779;28;21365;-47
2022/04/11 09:15:23;;;;;;;3.10;2.30;;;17.70;33.40;;;;;;5030568;28;20436;-49
2022/04/11 09:17:49;;;;;;;3.20;2.50;;;17.80;33.70;;;;;;5030827;28;20447;-51
2022/04/11 09:20:18;;;;;;;4.07;3.07;;;17.80;34.00;;;;;;5030470;28;20979;-51
2022/04/11 09:22:44;;;;;;;3.43;2.60;;;18.00;34.00;;;;;;5031011;28;20472;-50
2022/04/11 09:25:12;;;;;;;3.47;2.40;;;18.30;33.10;;;;;;5030369;28;20436;-51
2022/04/11 09:27:39;;;;;;;2.90;1.83;;;18.50;31.90;;;;;;5030417;28;20198;-47
2022/04/11 09:30:23;;;;;;;3.43;2.50;;;17.80;30.90;;;;;;5030488;28;20812;-47
2022/04/11 09:33:00;;;;;;;1.97;1.70;;;17.60;30.80;;;;;;5030603;28;20432;-51
2022/04/11 09:35:29;;;;;;;2.20;2.00;;;17.60;31.50;;;;;;5030266;28;20496;-50
2022/04/11 09:38:11;;;;;;;1.97;1.87;;;17.70;30.80;;;;;;5030508;28;20424;-50
2022/04/11 09:40:41;;;;;;;2.20;2.00;;;17.50;30.00;;;;;;5028723;28;20464;-52
2022/04/11 09:43:08;;;;;;;2.07;1.97;;;17.00;30.40;;;;;;5030219;28;20545;-52
2022/04/11 09:45:40;;;;;;;2.07;1.90;;;17.10;31.10;;;;;;5015576;28;20421;-49
2022/04/11 09:48:06;;;;;;;4.20;2.33;;;17.30;31.00;;;;;;5007752;28;20428;-46
2022/04/11 09:50:32;;;;;;;2.43;1.73;;;17.60;31.30;;;;;;5030023;28;20923;-47
2022/04/11 09:53:14;;;;;;;2.60;2.40;;;17.70;31.80;;;;;;5030644;28;20194;-52
2022/04/11 09:55:42;;;;;;;2.53;2.10;;;17.40;30.40;;;;;;5029784;28;20934;-49
2022/04/11 09:58:08;;;;;;;3.50;2.10;;;17.40;31.40;;;;;;5030318;28;20478;-47
2022/04/11 10:00:37;;;;;;;2.70;2.00;;;17.60;30.60;;;;;;5030242;28;20914;-49
2022/04/11 10:03:05;;;;;;;2.53;2.33;;;17.80;30.80;;;;;;5030413;28;21049;-48
2022/04/11 10:05:32;;;;;;;3.43;2.50;;;18.10;29.90;;;;;;5030073;28;20516;-49
2022/04/11 10:07:59;;;;;;;2.87;2.20;;;18.20;30.50;;;;;;5028596;28;20507;-47
2022/04/11 10:10:25;;;;;;;2.33;1.80;;;18.50;29.60;;;;;;5029917;28;20447;-46
2022/04/11 10:12:53;;;;;;;2.43;1.90;;;18.10;29.50;;;;;;5030248;28;20424;-46
2022/04/11 10:15:21;;;;;;;2.07;1.87;;;18.10;28.90;;;;;;5029973;28;20244;-51
2022/04/11 10:17:50;;;;;;;2.50;1.80;;;18.20;29.60;;;;;;5030094;28;20439;-47
2022/04/11 10:20:37;;;;;;;3.27;1.87;;;18.70;29.60;;;;;;5029772;28;20460;-47
2022/04/11 10:23:27;;;;;;;1.90;1.80;;;18.40;28.30;;;;;;5030550;28;20504;-50
2022/04/11 10:25:56;;;;;;;2.40;2.20;;;18.70;29.50;;;;;;5029742;28;20440;-49
2022/04/11 10:28:27;;;;;;;1.90;1.80;;;19.10;28.60;;;;;;5029933;28;20428;-50
2022/04/11 10:31:11;;;;;;;2.23;1.93;;;18.50;29.70;;;;;;5029480;28;20538;-48
2022/04/11 10:33:41;;;;;;;3.10;2.10;;;18.80;29.40;;;;;;5028592;28;20596;-51
2022/04/11 10:36:28;;;;;;;2.43;2.20;;;19.00;28.70;;;;;;5029489;28;20485;-51
2022/04/11 10:39:12;;;;;;;2.10;1.60;;;19.10;28.00;;;;;;5029989;28;20823;-51
2022/04/11 10:41:56;;;;;;;2.33;2.13;;;18.90;28.20;;;;;;5033453;28;20439;-51
2022/04/11 10:44:53;;;;;;;3.30;2.20;;;19.30;28.20;;;;;;5028348;28;20488;-48
2022/04/11 10:47:21;;;;;;;1.70;1.60;;;19.10;27.50;;;;;;5004575;28;20472;-47
2022/04/11 10:49:55;;;;;;;2.30;2.00;;;19.00;27.80;;;;;;5033027;28;20845;-47
2022/04/11 10:52:31;;;;;;;1.90;1.80;;;18.80;28.20;;;;;;5033867;28;20438;-48
2022/04/11 10:55:18;;;;;;;2.00;1.70;;;19.10;28.50;;;;;;5033324;28;20448;-48
2022/04/11 10:57:45;;;;;;;2.53;1.57;;;19.80;29.10;;;;;;5033352;28;20918;-46
2022/04/11 11:00:17;;;;;;;1.87;1.73;;;20.30;27.90;;;;;;5032628;28;20462;-50
2022/04/11 11:02:59;;;;;;;2.03;1.93;;;20.10;27.20;;;;;;5033070;28;20821;-47
2022/04/11 11:05:36;;;;;;;1.90;1.80;;;20.10;26.80;;;;;;5033186;28;20435;-48
2022/04/11 11:08:11;;;;;;;2.33;1.80;;;19.90;27.10;;;;;;5033343;28;20439;-47
2022/04/11 11:10:41;;;;;;;2.90;2.00;;;19.90;26.70;;;;;;5033042;28;20427;-50
2022/04/11 11:13:26;;;;;;;3.40;2.13;;;19.90;26.20;;;;;;5033570;28;20515;-48
2022/04/11 11:15:55;;;;;;;1.70;1.60;;;19.40;26.40;;;;;;5032757;28;20454;-47
2022/04/11 11:18:21;;;;;;;3.03;2.10;;;19.50;26.60;;;;;;5032775;28;20424;-46
2022/04/11 11:20:55;;;;;;;2.57;1.87;;;20.10;27.10;;;;;;5032786;28;20930;-51
2022/04/11 11:23:30;;;;;;;2.37;1.87;;;20.50;26.40;;;;;;5033089;28;20487;-47
2022/04/11 11:26:10;;;;;;;3.57;1.70;;;20.50;26.20;;;;;;5032714;28;20471;-47
2022/04/11 11:28:37;;;;;;;2.70;1.60;;;20.20;27.40;;;;;;5031071;28;20428;-48
2022/04/11 11:31:04;;;;;;;3.30;1.70;;;20.70;28.20;;;;;;5032907;28;20435;-47
2022/04/11 11:33:30;;;;;;;4.80;1.70;;;21.20;26.60;;;;;;5033160;28;20436;-47
2022/04/11 11:35:56;;;;;;;2.13;1.80;;;21.60;26.30;;;;;;5032788;28;21117;-47
2022/04/11 11:38:29;;;;;;;2.27;1.67;;;21.60;25.70;;;;;;5032451;28;20201;-47
2022/04/11 11:41:00;;;;;;;2.53;1.97;;;21.80;26.00;;;;;;5032400;28;20479;-47
2022/04/11 11:43:28;;;;;;;2.40;1.80;;;22.20;26.20;;;;;;5032672;28;20574;-48
2022/04/11 11:46:00;;;;;;;2.33;1.83;;;22.30;25.40;;;;;;5014578;28;20429;-46
2022/04/11 11:48:29;;;;;;;2.80;2.07;;;22.20;26.30;;;;;;5012803;28;20421;-48
2022/04/11 11:50:57;;;;;;;1.90;1.80;;;22.60;25.90;;;;;;5032111;28;20844;-51
2022/04/11 11:53:24;;;;;;;2.00;1.83;;;22.90;25.70;;;;;;5032786;28;20436;-47
2022/04/11 11:55:58;;;;;;;2.40;1.60;;;23.10;25.10;;;;;;5030603;28;20439;-47
2022/04/11 11:58:37;;;;;;;2.20;2.00;;;23.30;25.10;;;;;;5032163;28;20444;-48
2022/04/11 12:01:04;;;;;;;2.63;1.30;;;22.80;24.50;;;;;;5032432;28;20798;-47
2022/04/11 12:06:22;;;;;;;2.53;1.63;;;22.70;24.70;;;;;;5032142;28;20494;-49
2022/04/11 12:09:02;;;;;;;2.43;2.10;;;22.60;25.10;;;;;;5031999;28;20436;-48
2022/04/11 12:11:29;;;;;;;2.93;2.40;;;22.10;25.30;;;;;;5031927;28;20438;-48
2022/04/11 12:14:02;;;;;;;3.53;1.87;;;21.90;26.50;;;;;;5032390;28;20993;-47
2022/04/11 12:16:29;;;;;;;2.10;1.90;;;22.30;26.90;;;;;;5031508;28;20440;-48
2022/04/11 12:18:57;;;;;;;2.50;1.87;;;23.00;27.40;;;;;;5031953;28;20525;-47
2022/04/11 12:21:30;;;;;;;1.93;1.53;;;23.50;26.10;;;;;;5029909;28;20431;-47
2022/04/11 12:23:56;;;;;;;3.07;1.97;;;23.80;25.20;;;;;;5032329;28;20631;-48
2022/04/11 12:26:46;;;;;;;2.10;2.00;;;23.70;25.20;;;;;;5031336;28;20515;-47
2022/04/11 12:29:16;;;;;;;1.70;1.60;;;23.80;25.30;;;;;;5031701;28;20189;-48
2022/04/11 12:31:59;;;;;;;1.70;1.60;;;23.60;24.60;;;;;;5031404;28;20791;-47
2022/04/11 12:34:37;;;;;;;1.83;1.73;;;23.30;24.80;;;;;;5031566;28;20483;-51
2022/04/11 12:37:05;;;;;;;2.23;2.03;;;23.70;24.80;;;;;;5032121;28;20458;-48
2022/04/11 12:39:31;;;;;;;2.27;2.07;;;23.20;24.30;;;;;;5031067;28;20436;-49
2022/04/11 12:41:57;;;;;;;2.13;2.00;;;23.00;24.70;;;;;;5031966;28;20435;-46
2022/04/11 12:44:34;;;;;;;1.97;1.87;;;22.70;25.20;;;;;;5025458;28;20492;-49
2022/04/11 12:47:00;;;;;;;9.00;6.93;;;23.40;26.20;;;;;;5004731;28;20286;-48
2022/04/11 12:49:43;;;;;;;3.40;3.10;;;23.70;24.60;;;;;;5025618;28;20459;-47
2022/04/11 12:52:09;;;;;;;3.40;2.03;;;23.50;24.60;;;;;;5030113;28;20235;-47
2022/04/11 12:54:45;;;;;;;4.23;2.13;;;23.70;24.60;;;;;;5031324;28;20435;-48
2022/04/11 12:57:18;;;;;;;3.90;2.70;;;24.00;24.60;;;;;;5031212;28;20189;-51
2022/04/11 12:59:43;;;;;;;2.17;1.97;;;24.30;25.60;;;;;;5030871;28;20466;-49